createdAt,value
2019-02-15T00:01:27.812Z,27.77
2019-02-15T00:03:57.411Z,30.07
2019-02-15T00:06:27.268Z,28.97
2019-02-15T00:08:57.337Z,28.50
2019-02-15T00:11:27.102Z,29.83
2019-02-15T00:13:56.680Z,27.80
2019-02-15T00:16:26.488Z,26.83
2019-02-15T00:19:10.845Z,28.70
2019-02-15T00:21:48.619Z,27.87
2019-02-15T00:26:47.696Z,28.17
2019-02-15T00:29:17.728Z,28.47
2019-02-15T00:31:47.661Z,27.30
2019-02-15T00:34:17.192Z,26.57
2019-02-15T00:36:46.881Z,28.53
2019-02-15T00:39:16.552Z,28.33
2019-02-15T00:41:46.506Z,26.23
2019-02-15T00:44:16.355Z,26.07
2019-02-15T00:47:14.072Z,27.00
2019-02-15T00:49:52.716Z,25.90
2019-02-15T00:52:56.873Z,27.07
2019-02-15T00:55:38.283Z,27.00
2019-02-15T00:58:26.141Z,26.97
2019-02-15T01:01:06.995Z,27.43
2019-02-15T01:03:57.732Z,27.63
2019-02-15T01:07:04.543Z,29.67
2019-02-15T01:09:51.322Z,27.20
2019-02-15T01:12:24.165Z,27.33
2019-02-15T01:14:53.764Z,29.17
2019-02-15T01:17:23.444Z,29.33
2019-02-15T01:19:53.158Z,29.97
2019-02-15T01:22:22.767Z,27.93
2019-02-15T01:24:52.392Z,29.10
2019-02-15T01:27:37.435Z,30.47
2019-02-15T01:30:26.336Z,27.23
2019-02-15T01:33:05.680Z,30.60
2019-02-15T01:35:52.901Z,30.63
2019-02-15T01:38:44.165Z,30.23
2019-02-15T01:41:28.892Z,29.20
2019-02-15T01:44:09.558Z,29.37
2019-02-15T01:46:48.880Z,29.83
2019-02-15T01:49:18.516Z,29.43
2019-02-15T01:51:48.087Z,30.73
2019-02-15T01:54:17.705Z,29.90
2019-02-15T01:56:47.267Z,31.60
2019-02-15T01:59:16.859Z,30.20
2019-02-15T02:01:46.452Z,30.30
2019-02-15T02:04:16.024Z,30.50
2019-02-15T02:06:45.639Z,30.87
2019-02-15T02:09:15.360Z,31.97
2019-02-15T02:11:44.929Z,31.23
2019-02-15T02:14:14.716Z,31.37
2019-02-15T02:16:44.396Z,31.57
2019-02-15T02:19:14.237Z,30.47
2019-02-15T02:21:43.931Z,31.03
2019-02-15T02:24:13.503Z,33.90
2019-02-15T02:26:43.688Z,32.67
2019-02-15T02:29:13.317Z,32.93
2019-02-15T02:31:43.086Z,32.63
2019-02-15T02:34:13.121Z,30.00
2019-02-15T02:36:53.253Z,32.43
2019-02-15T02:39:23.164Z,31.77
2019-02-15T02:41:53.522Z,30.97
2019-02-15T02:44:23.526Z,32.20
2019-02-15T02:46:53.429Z,29.53
2019-02-15T02:49:23.110Z,31.53
2019-02-15T02:51:52.981Z,31.53
2019-02-15T02:54:22.716Z,28.70
2019-02-15T02:56:52.383Z,28.47
2019-02-15T02:59:28.511Z,30.20
2019-02-15T03:02:00.464Z,29.10
2019-02-15T03:04:30.377Z,32.50
2019-02-15T03:06:59.981Z,34.00
2019-02-15T03:09:29.800Z,33.50
2019-02-15T03:11:59.509Z,33.40
2019-02-15T03:14:29.425Z,32.33
2019-02-15T03:16:59.228Z,30.93
2019-02-15T03:19:29.021Z,31.63
2019-02-15T03:21:58.598Z,34.03
2019-02-15T03:24:28.240Z,31.20
2019-02-15T03:26:57.894Z,31.87
2019-02-15T03:29:27.653Z,30.30
2019-02-15T03:31:57.213Z,30.87
2019-02-15T03:34:26.982Z,31.60
2019-02-15T03:37:21.943Z,32.80
2019-02-15T03:39:54.927Z,33.43
2019-02-15T03:47:35.470Z,33.07
2019-02-15T03:50:05.490Z,32.43
2019-02-15T03:52:35.357Z,32.33
2019-02-15T03:55:05.623Z,32.10
2019-02-15T03:57:35.311Z,29.87
2019-02-15T04:00:05.656Z,31.70
2019-02-15T04:02:35.594Z,32.83
2019-02-15T04:05:05.557Z,34.23
2019-02-15T04:07:35.169Z,32.10
2019-02-15T04:10:05.364Z,33.83
2019-02-15T04:12:35.126Z,31.97
2019-02-15T04:15:05.064Z,32.13
2019-02-15T04:17:34.813Z,33.40
2019-02-15T04:20:05.017Z,31.20
2019-02-15T04:22:34.697Z,32.33
2019-02-15T04:25:04.486Z,31.70
2019-02-15T04:27:34.317Z,34.20
2019-02-15T04:30:04.364Z,32.87
2019-02-15T04:32:34.244Z,32.93
2019-02-15T04:35:03.865Z,33.77
2019-02-15T04:37:33.574Z,34.13
2019-02-15T04:40:03.434Z,35.17
2019-02-15T04:42:33.234Z,35.67
2019-02-15T04:45:02.873Z,34.83
2019-02-15T04:47:32.614Z,34.90
2019-02-15T04:50:02.536Z,33.63
2019-02-15T04:52:32.216Z,33.50
2019-02-15T04:55:01.966Z,32.67
2019-02-15T04:57:31.853Z,31.30
2019-02-15T05:00:01.547Z,32.23
2019-02-15T05:05:00.035Z,29.93
2019-02-15T05:07:29.782Z,27.90
2019-02-15T05:09:59.448Z,28.57
2019-02-15T05:12:29.354Z,31.30
2019-02-15T05:17:28.351Z,32.73
2019-02-15T05:19:58.100Z,33.03
2019-02-15T05:22:27.730Z,32.50
2019-02-15T05:24:57.563Z,34.40
2019-02-15T05:27:27.440Z,33.37
2019-02-15T05:29:57.213Z,34.80
2019-02-15T05:32:26.947Z,35.30
2019-02-15T05:34:56.815Z,36.70
2019-02-15T05:37:26.591Z,36.30
2019-02-15T05:39:56.287Z,34.93
2019-02-15T05:42:26.072Z,33.53
2019-02-15T05:45:03.409Z,35.37
2019-02-15T05:47:27.032Z,34.43
2019-02-15T05:49:56.733Z,33.47
2019-02-15T05:52:26.373Z,34.30
2019-02-15T05:54:56.137Z,34.93
2019-02-15T05:57:25.761Z,34.47
2019-02-15T05:59:55.399Z,33.77
2019-02-15T06:02:25.175Z,33.93
2019-02-15T06:04:54.919Z,31.30
2019-02-15T06:07:24.783Z,31.93
2019-02-15T06:09:54.486Z,34.43
2019-02-15T06:12:24.142Z,33.37
2019-02-15T06:14:53.744Z,35.90
2019-02-15T06:17:23.404Z,33.80
2019-02-15T06:19:53.060Z,34.90
2019-02-15T06:22:22.821Z,33.27
2019-02-15T06:24:52.591Z,34.70
2019-02-15T06:27:22.867Z,34.33
2019-02-15T06:29:52.548Z,33.50
2019-02-15T06:32:22.296Z,34.33
2019-02-15T06:34:51.964Z,35.83
2019-02-15T06:39:56.790Z,32.97
2019-02-15T06:42:26.843Z,36.20
2019-02-15T06:44:56.719Z,31.93
2019-02-15T06:47:26.329Z,30.30
2019-02-15T06:49:55.901Z,31.07
2019-02-15T06:52:25.737Z,31.77
2019-02-15T06:54:55.444Z,31.70
2019-02-15T06:57:25.164Z,28.83
2019-02-15T07:00:13.929Z,31.00
2019-02-15T07:02:51.509Z,30.70
2019-02-15T07:05:26.128Z,30.20
2019-02-15T07:07:56.196Z,30.67
2019-02-15T07:10:25.973Z,29.67
2019-02-15T07:12:55.902Z,29.53
2019-02-15T07:15:33.416Z,29.77
2019-02-15T07:17:56.977Z,29.37
2019-02-15T07:20:26.712Z,29.73
2019-02-15T07:22:56.689Z,29.40
2019-02-15T07:25:26.639Z,30.17
2019-02-15T07:27:56.559Z,29.73
2019-02-15T07:30:26.267Z,28.87
2019-02-15T07:32:56.111Z,30.17
2019-02-15T07:35:25.949Z,29.67
2019-02-15T07:37:55.787Z,31.17
2019-02-15T07:40:25.615Z,29.23
2019-02-15T07:42:55.551Z,29.77
2019-02-15T07:45:25.443Z,29.17
2019-02-15T07:47:55.383Z,28.67
2019-02-15T07:50:25.394Z,28.93
2019-02-15T07:52:55.543Z,29.00
2019-02-15T07:55:25.526Z,28.33
2019-02-15T07:57:55.601Z,28.47
2019-02-15T08:00:25.551Z,28.60
2019-02-15T08:02:55.426Z,27.30
2019-02-15T08:05:25.589Z,27.30
2019-02-15T08:07:55.238Z,26.53
2019-02-15T08:10:24.897Z,26.50
2019-02-15T08:12:56.795Z,26.90
2019-02-15T08:15:35.638Z,26.37
2019-02-15T08:17:57.656Z,26.37
2019-02-15T08:20:27.220Z,26.97
2019-02-15T08:22:56.826Z,26.73
2019-02-15T08:25:26.412Z,27.07
2019-02-15T08:27:56.024Z,26.07
2019-02-15T08:30:25.628Z,26.77
2019-02-15T08:32:55.168Z,24.47
2019-02-15T08:38:13.865Z,24.93
2019-02-15T08:40:43.432Z,26.17
2019-02-15T08:43:13.026Z,23.70
2019-02-15T08:45:42.623Z,22.70
2019-02-15T08:48:12.188Z,22.53
2019-02-15T08:50:41.803Z,21.23
2019-02-15T08:53:11.391Z,21.83
2019-02-15T08:55:40.993Z,21.40
2019-02-15T08:58:11.449Z,21.33
2019-02-15T09:00:41.072Z,20.43
2019-02-15T09:03:10.680Z,20.13
2019-02-15T09:05:40.248Z,20.43
2019-02-15T09:08:09.844Z,20.27
2019-02-15T09:10:39.416Z,21.47
2019-02-15T09:13:09.032Z,19.97
2019-02-15T09:15:38.602Z,21.43
2019-02-15T09:18:08.213Z,19.80
2019-02-15T09:20:37.812Z,19.80
2019-02-15T09:23:07.389Z,20.50
2019-02-15T09:25:37.002Z,19.97
2019-02-15T09:28:25.464Z,20.53
2019-02-15T09:30:55.267Z,18.87
2019-02-15T09:33:24.888Z,19.03
2019-02-15T09:35:54.484Z,17.70
2019-02-15T09:38:24.112Z,18.53
2019-02-15T09:40:53.761Z,17.97
2019-02-15T09:43:23.335Z,18.80
2019-02-15T09:45:52.938Z,18.73
2019-02-15T09:48:22.516Z,19.03
2019-02-15T09:50:52.134Z,19.10
2019-02-15T09:53:21.766Z,17.97
2019-02-15T09:55:51.351Z,19.77
2019-02-15T09:58:20.940Z,19.17
2019-02-15T10:00:50.535Z,18.67
2019-02-15T10:03:20.097Z,18.77
2019-02-15T10:05:49.696Z,19.33
2019-02-15T10:08:19.272Z,18.97
2019-02-15T10:10:48.872Z,19.20
2019-02-15T10:13:18.444Z,20.57
2019-02-15T10:15:48.106Z,19.50
2019-02-15T10:18:17.677Z,17.93
2019-02-15T10:20:47.246Z,18.73
2019-02-15T10:23:16.858Z,18.07
2019-02-15T10:25:46.470Z,18.10
2019-02-15T10:28:16.102Z,18.47
2019-02-15T10:30:45.728Z,18.10
2019-02-15T10:33:15.328Z,18.50
2019-02-15T10:35:44.939Z,17.67
2019-02-15T10:38:14.568Z,18.57
2019-02-15T10:40:44.182Z,19.10
2019-02-15T10:43:13.760Z,18.73
2019-02-15T10:45:43.377Z,17.57
2019-02-15T10:48:12.971Z,18.70
2019-02-15T10:50:42.657Z,18.73
2019-02-15T10:53:12.254Z,18.50
2019-02-15T10:55:41.856Z,17.57
2019-02-15T10:58:11.441Z,18.13
2019-02-15T11:00:41.072Z,16.50
2019-02-15T11:03:10.675Z,18.77
2019-02-15T11:05:40.300Z,17.90
2019-02-15T11:08:09.900Z,18.47
2019-02-15T11:10:39.468Z,18.67
2019-02-15T11:13:09.089Z,16.53
2019-02-15T11:15:38.645Z,17.27
2019-02-15T11:18:08.252Z,16.43
2019-02-15T11:20:37.860Z,15.80
2019-02-15T11:23:07.468Z,17.67
2019-02-15T11:25:37.085Z,16.77
2019-02-15T11:28:06.655Z,16.60
2019-02-15T11:30:36.272Z,16.63
2019-02-15T11:33:05.964Z,15.70
2019-02-15T11:35:35.589Z,16.53
2019-02-15T11:38:05.184Z,17.13
2019-02-15T11:40:34.828Z,16.60
2019-02-15T11:43:04.527Z,15.73
2019-02-15T11:45:34.136Z,15.83
2019-02-15T11:48:03.752Z,16.10
2019-02-15T11:50:33.336Z,15.80
2019-02-15T11:53:02.944Z,15.70
2019-02-15T11:55:32.521Z,15.43
2019-02-15T11:58:02.144Z,16.03
2019-02-15T12:00:35.508Z,15.13
2019-02-15T12:03:05.290Z,15.10
2019-02-15T12:05:34.870Z,13.20
2019-02-15T12:08:04.508Z,11.83
2019-02-15T12:10:34.355Z,10.50
2019-02-15T12:13:03.964Z,9.80
2019-02-15T12:15:33.564Z,9.27
2019-02-15T12:18:03.160Z,9.93
2019-02-15T12:20:32.745Z,9.20
2019-02-15T12:23:02.340Z,8.60
2019-02-15T12:25:31.948Z,8.60
2019-02-15T12:28:01.517Z,6.93
2019-02-15T12:30:31.130Z,6.97
2019-02-15T12:33:00.699Z,7.67
2019-02-15T12:35:30.360Z,7.53
2019-02-15T12:37:59.972Z,8.10
2019-02-15T12:40:29.572Z,8.67
2019-02-15T12:42:59.209Z,8.30
2019-02-15T12:45:28.884Z,9.13
2019-02-15T12:47:58.528Z,9.30
2019-02-15T12:50:28.136Z,8.67
2019-02-15T12:52:57.735Z,8.67
2019-02-15T12:55:27.339Z,8.13
2019-02-15T12:57:56.921Z,8.47
2019-02-15T13:00:26.577Z,8.00
2019-02-15T13:02:56.151Z,8.40
2019-02-15T13:05:25.724Z,9.23
2019-02-15T13:07:55.329Z,8.37
2019-02-15T13:10:26.056Z,8.63
2019-02-15T13:12:55.660Z,8.40
2019-02-15T13:15:25.349Z,9.37
2019-02-15T13:17:54.948Z,8.70
2019-02-15T13:20:24.525Z,9.03
2019-02-15T13:22:54.128Z,9.60
2019-02-15T13:25:23.737Z,9.47
2019-02-15T13:27:53.331Z,9.93
2019-02-15T13:30:22.908Z,9.60
2019-02-15T13:32:52.520Z,9.80
2019-02-15T13:35:22.480Z,9.17
2019-02-15T13:37:52.092Z,9.77
2019-02-15T13:40:21.697Z,8.63
2019-02-15T13:42:51.300Z,8.73
2019-02-15T13:45:20.920Z,9.07
2019-02-15T13:47:50.488Z,9.33
2019-02-15T13:50:20.089Z,9.50
2019-02-15T13:52:49.719Z,9.20
2019-02-15T13:55:19.299Z,9.57
2019-02-15T13:57:48.976Z,9.53
2019-02-15T14:00:20.579Z,9.23
2019-02-15T14:02:50.161Z,10.20
2019-02-15T14:05:19.773Z,10.13
2019-02-15T14:07:49.335Z,9.50
2019-02-15T14:10:18.986Z,9.57
2019-02-15T14:12:48.564Z,10.23
2019-02-15T14:15:18.168Z,9.50
2019-02-15T14:17:48.829Z,9.83
2019-02-15T14:20:18.607Z,10.40
2019-02-15T14:22:48.178Z,10.17
2019-02-15T14:25:17.794Z,10.53
2019-02-15T14:27:47.365Z,9.13
2019-02-15T14:30:16.936Z,9.17
2019-02-15T14:32:46.567Z,9.57
2019-02-15T14:35:16.328Z,9.67
2019-02-15T14:37:45.972Z,9.80
2019-02-15T14:40:15.600Z,9.33
2019-02-15T14:42:45.302Z,10.60
2019-02-15T14:45:14.992Z,9.87
2019-02-15T14:47:54.043Z,8.90
2019-02-15T14:50:16.012Z,8.90
2019-02-15T14:52:45.628Z,8.43
2019-02-15T14:55:15.240Z,8.00
2019-02-15T14:57:44.812Z,7.33
2019-02-15T15:00:14.621Z,7.63
2019-02-15T15:02:44.221Z,7.20
2019-02-15T15:05:14.246Z,6.90
2019-02-15T15:07:43.880Z,6.63
2019-02-15T15:10:13.664Z,6.27
2019-02-15T15:12:43.304Z,6.60
2019-02-15T15:15:13.126Z,6.20
2019-02-15T15:17:42.758Z,6.93
2019-02-15T15:20:12.337Z,6.93
2019-02-15T15:22:42.058Z,6.77
2019-02-15T15:25:12.201Z,7.10
2019-02-15T15:30:17.516Z,7.43
2019-02-15T15:32:47.145Z,7.03
2019-02-15T15:35:16.752Z,6.97
2019-02-15T15:37:46.417Z,7.07
2019-02-15T15:40:16.025Z,7.87
2019-02-15T15:42:45.662Z,7.27
2019-02-15T15:45:15.382Z,7.37
2019-02-15T15:47:45.147Z,7.65
2019-02-15T15:50:15.201Z,6.80
2019-02-15T15:52:44.843Z,7.28
2019-02-15T15:55:14.576Z,8.40
2019-02-15T15:57:44.229Z,7.78
2019-02-15T16:00:14.181Z,7.97
2019-02-15T16:02:43.860Z,8.00
2019-02-15T16:07:43.676Z,7.73
2019-02-15T16:10:13.757Z,6.67
2019-02-15T16:12:43.624Z,7.63
2019-02-15T16:17:55.060Z,7.50
2019-02-15T16:20:24.705Z,6.67
2019-02-15T16:22:54.336Z,6.83
2019-02-15T16:25:23.964Z,7.33
2019-02-15T16:27:53.541Z,7.33
2019-02-15T16:30:23.137Z,6.93
2019-02-15T16:32:52.752Z,7.27
2019-02-15T16:35:22.333Z,7.57
2019-02-15T16:37:51.941Z,6.87
2019-02-15T16:40:21.536Z,8.23
2019-02-15T16:42:51.239Z,7.20
2019-02-15T16:45:20.872Z,8.10
2019-02-15T16:47:50.581Z,7.40
2019-02-15T16:50:20.194Z,7.63
2019-02-15T16:52:49.767Z,7.17
2019-02-15T16:55:19.384Z,7.50
2019-02-15T16:57:48.981Z,7.93
2019-02-15T17:00:19.572Z,7.67
2019-02-15T17:02:49.172Z,7.67
2019-02-15T17:05:18.779Z,8.50
2019-02-15T17:07:48.401Z,8.37
2019-02-15T17:10:18.915Z,8.00
2019-02-15T17:12:48.486Z,8.43
2019-02-15T17:15:18.064Z,9.17
2019-02-15T17:17:47.737Z,9.07
2019-02-15T17:20:17.475Z,9.13
2019-02-15T17:22:47.067Z,9.13
2019-02-15T17:25:16.699Z,8.60
2019-02-15T17:27:46.353Z,9.27
2019-02-15T17:30:15.927Z,9.40
2019-02-15T17:32:45.552Z,10.00
2019-02-15T17:35:15.128Z,9.67
2019-02-15T17:37:44.740Z,9.20
2019-02-15T17:40:14.347Z,10.23
2019-02-15T17:42:43.958Z,9.63
2019-02-15T17:45:14.111Z,10.03
2019-02-15T17:47:43.840Z,11.10
2019-02-15T17:50:13.624Z,11.07
2019-02-15T17:52:43.217Z,10.57
2019-02-15T17:55:12.824Z,9.93
2019-02-15T17:57:42.416Z,12.00
2019-02-15T18:00:12.453Z,11.60
2019-02-15T18:02:42.264Z,12.53
2019-02-15T18:05:17.096Z,12.00
2019-02-15T18:07:48.082Z,12.80
2019-02-15T18:10:17.665Z,13.13
2019-02-15T18:12:47.289Z,13.17
2019-02-15T18:15:16.884Z,13.40
2019-02-15T18:17:46.607Z,14.53
2019-02-15T18:20:16.244Z,13.20
2019-02-15T18:25:14.786Z,14.40
2019-02-15T18:27:44.456Z,13.53
2019-02-15T18:30:14.194Z,14.33
2019-02-15T18:32:43.792Z,15.73
2019-02-15T18:35:13.611Z,13.93
2019-02-15T18:37:43.275Z,14.37
2019-02-15T18:40:12.868Z,14.57
2019-02-15T18:42:42.526Z,14.57
2019-02-15T18:45:12.740Z,14.63
2019-02-15T18:47:42.347Z,15.93
2019-02-15T18:50:11.972Z,14.70
2019-02-15T18:52:41.608Z,20.13
2019-02-15T18:55:11.261Z,21.03
2019-02-15T18:57:40.916Z,18.50
2019-02-15T19:00:13.612Z,18.30
2019-02-15T19:02:43.244Z,18.40
2019-02-15T19:05:13.560Z,18.00
2019-02-15T19:07:43.159Z,19.07
2019-02-15T19:10:14.514Z,19.77
2019-02-15T19:12:44.132Z,19.50
2019-02-15T19:15:14.637Z,19.33
2019-02-15T19:17:44.296Z,18.23
2019-02-15T19:20:14.204Z,18.63
2019-02-15T19:22:43.813Z,18.20
2019-02-15T19:25:13.689Z,19.30
2019-02-15T19:27:43.277Z,19.53
2019-02-15T19:30:15.369Z,18.23
2019-02-15T19:32:45.023Z,20.17
2019-02-15T19:37:49.776Z,18.37
2019-02-15T19:40:19.464Z,18.90
2019-02-15T19:42:50.612Z,20.47
2019-02-15T19:45:20.650Z,21.23
2019-02-15T19:47:50.243Z,22.53
2019-02-15T19:50:19.854Z,36.17
2019-02-15T19:52:49.584Z,26.07
2019-02-15T19:55:19.195Z,23.70
2019-02-15T19:57:48.781Z,21.93
2019-02-15T20:00:18.856Z,24.37
2019-02-15T20:02:48.470Z,27.63
2019-02-15T20:05:18.104Z,25.97
2019-02-15T20:07:47.728Z,24.93
2019-02-15T20:10:19.362Z,23.10
2019-02-15T20:12:48.983Z,39.00
2019-02-15T20:15:18.801Z,23.87
2019-02-15T20:17:48.369Z,22.93
2019-02-15T20:20:17.989Z,20.00
2019-02-15T20:22:47.574Z,27.73
2019-02-15T20:25:17.207Z,20.63
2019-02-15T20:27:46.755Z,18.73
2019-02-15T20:30:17.835Z,18.67
2019-02-15T20:32:47.508Z,18.83
2019-02-15T20:35:17.193Z,18.57
2019-02-15T20:37:46.844Z,18.90
2019-02-15T20:40:16.428Z,19.43
2019-02-15T20:42:48.832Z,19.80
2019-02-15T20:45:19.776Z,18.30
2019-02-15T20:47:49.413Z,17.73
2019-02-15T20:50:18.998Z,18.73
2019-02-15T20:52:48.570Z,19.10
2019-02-15T20:55:18.203Z,19.20
2019-02-15T20:57:48.067Z,19.33
2019-02-15T21:00:20.272Z,20.23
2019-02-15T21:02:52.633Z,21.10
2019-02-15T21:05:22.323Z,19.87
2019-02-15T21:07:51.982Z,18.47
2019-02-15T21:10:21.550Z,18.67
2019-02-15T21:12:51.156Z,18.40
2019-02-15T21:15:21.353Z,18.20
2019-02-15T21:17:50.936Z,17.20
2019-02-15T21:20:20.949Z,16.40
2019-02-15T21:22:50.544Z,16.40
2019-02-15T21:25:20.123Z,17.00
2019-02-15T21:28:42.468Z,14.90
2019-02-15T21:31:12.341Z,15.50
2019-02-15T21:33:42.422Z,15.07
2019-02-15T21:36:12.351Z,15.10
2019-02-15T21:38:42.485Z,14.23
2019-02-15T21:41:13.088Z,14.63
2019-02-15T21:43:43.449Z,13.13
2019-02-15T21:46:14.174Z,13.17
2019-02-15T21:48:44.480Z,14.20
2019-02-15T21:51:15.069Z,13.67
2019-02-15T21:53:45.609Z,14.50
2019-02-15T21:56:15.631Z,14.53
2019-02-15T21:58:46.331Z,14.67
2019-02-15T22:01:19.113Z,14.60
2019-02-15T22:03:50.991Z,14.60
2019-02-15T22:06:22.248Z,15.57
2019-02-15T22:08:53.785Z,18.00
2019-02-15T22:11:25.023Z,18.93
2019-02-15T22:13:55.540Z,18.63
2019-02-15T22:16:28.309Z,18.37
2019-02-15T22:18:58.343Z,18.43
2019-02-15T22:21:28.328Z,18.23
2019-02-15T22:23:58.527Z,16.90
2019-02-15T22:26:28.271Z,16.47
2019-02-15T22:28:58.494Z,16.97
2019-02-15T22:31:28.299Z,18.43
2019-02-15T22:33:58.451Z,17.47
2019-02-15T22:36:28.716Z,18.40
2019-02-15T22:38:58.844Z,18.33
2019-02-15T22:41:29.211Z,17.33
2019-02-15T22:43:59.245Z,17.23
2019-02-15T22:46:30.420Z,17.43
2019-02-15T22:49:01.028Z,19.73
2019-02-15T22:51:32.048Z,18.27
2019-02-15T22:54:02.824Z,19.03
2019-02-15T22:56:32.852Z,18.30
2019-02-15T22:59:02.713Z,19.30
2019-02-15T23:01:32.849Z,19.17
2019-02-15T23:04:02.828Z,19.20
2019-02-15T23:06:32.815Z,17.53
2019-02-15T23:09:05.737Z,18.37
2019-02-15T23:11:37.543Z,18.03
2019-02-15T23:14:07.718Z,17.87
2019-02-15T23:16:37.690Z,18.00
2019-02-15T23:19:07.777Z,17.40
2019-02-15T23:21:37.924Z,18.63
2019-02-15T23:24:08.070Z,18.27
2019-02-15T23:26:38.556Z,18.03
2019-02-15T23:29:08.528Z,17.37
2019-02-15T23:31:38.558Z,18.27
2019-02-15T23:34:08.232Z,19.50
2019-02-15T23:36:38.012Z,18.73
2019-02-15T23:39:07.947Z,19.17
2019-02-15T23:41:38.021Z,18.20
2019-02-15T23:44:07.867Z,18.80
2019-02-15T23:46:37.940Z,18.17
2019-02-15T23:49:07.911Z,19.63
2019-02-15T23:51:37.795Z,21.00
2019-02-15T23:54:07.943Z,20.20
2019-02-15T23:56:37.796Z,19.90
2019-02-15T23:59:07.928Z,21.47
